D/T METAR WX W/DIR W/SPE G/SPE TEMP DEWP
9/12/19 11:50 EGXZ 091150Z AUTO 32020KT 9999 NCD 07/M00 Q1012 NW (320°) 23.0mph 7°C 0°C
9/12/19 10:50 EGXZ 091050Z AUTO 33020KT 9999 NCD 06/00 Q1010 NNW (330°) 23.0mph 6°C 0°C
9/12/19 09:50 EGXZ 090950Z AUTO 31018KT 9999 NCD 06/00 Q1008 NW (310°) 20.7mph 6°C 0°C
9/12/19 08:50 EGXZ 090850Z AUTO 32021G31KT 9999 NCD 05/00 Q1005 NW (320°) 24.2mph 35.7mph 5°C 0°C
9/12/19 07:50 EGXZ 090750Z AUTO 32022KT 9999 NCD 06/01 Q1002 NW (320°) 25.3mph 6°C 1°C
9/12/19 06:50 EGXZ 090650Z AUTO 32022KT 9999 FEW120/// 06/01 Q0999 NW (320°) 25.3mph 6°C 1°C
9/12/19 05:50 EGXZ 090550Z AUTO 32023G33KT 9999 FEW039/// BKN120/// 07/02 Q0996 NW (320°) 26.5mph 38.0mph 7°C 2°C
9/12/19 04:50 EGXZ 090450Z AUTO 32021KT 9999 BKN100/// BKN140/// 07/02 Q0993 NW (320°) 24.2mph 7°C 2°C
9/12/19 03:50 EGXZ 090350Z AUTO 32016KT 9999 FEW060/// SCT200/// 07/03 Q0991 NW (320°) 18.4mph 7°C 3°C
9/12/19 02:50 EGXZ 090250Z AUTO 29009KT 9999 FEW039/// SCT060/// 06/04 Q0989 RERA WNW (290°) 10.4mph 6°C 4°C
9/12/19 01:50 EGXZ 090150Z AUTO 22002KT 9999 RA SCT037/// SCT050/// 04/03 Q0987 RA SW (220°) 2.3mph 4°C 3°C
9/12/19 00:50 EGXZ 090050Z AUTO 09002KT 9999 FEW045/// 03/01 Q0985 E (90°) 2.3mph 3°C 1°C
8/12/19 23:50 EGXZ 082350Z AUTO 23010KT 9999 SCT043/// 05/03 Q0985 RERA SW (230°) 11.5mph 5°C 3°C
8/12/19 22:50 EGXZ 082250Z AUTO 23013KT 9999 -RA FEW020/// BKN033/// 06/04 Q0984 -RA SW (230°) 15.0mph 6°C 4°C
8/12/19 21:50 EGXZ 082150Z AUTO 23015KT 9999 FEW028/// 06/03 Q0984 RERA SW (230°) 17.3mph 6°C 3°C
8/12/19 20:50 EGXZ 082050Z AUTO 23016KT 9999 FEW027/// 06/03 Q0984 RERA SW (230°) 18.4mph 6°C 3°C
8/12/19 19:50 EGXZ 081950Z AUTO 24018G28KT 9999 -RA FEW026/// SCT033/// BKN090/// 06/04 Q0985 -RA WSW (240°) 20.7mph 32.2mph 6°C 4°C
8/12/19 18:50 EGXZ 081850Z AUTO 23016KT 9999 FEW024/// SCT032/// 06/03 Q0985 RERA SW (230°) 18.4mph 6°C 3°C
8/12/19 17:50 EGXZ 081750Z AUTO 23017KT 9999 -RA FEW026/// BKN035/// 06/04 Q0986 -RA SW (230°) 19.6mph 6°C 4°C
8/12/19 16:50 EGXZ 081650Z AUTO 24016G27KT 9999 -RA SCT028/// 06/03 Q0987 -RA WSW (240°) 18.4mph 31.1mph 6°C 3°C
8/12/19 15:50 EGXZ 081550Z AUTO 24015G28KT 9999 FEW028/// 07/03 Q0988 RERA WSW (240°) 17.3mph 32.2mph 7°C 3°C
8/12/19 14:50 EGXZ 081450Z AUTO 23019G32KT 9999 FEW030/// SCT090/// 06/04 Q0988 RERA SW (230°) 21.9mph 36.8mph 6°C 4°C
8/12/19 13:50 EGXZ 081350Z AUTO 24017KT 9999 SCT029/// SCT045/// 07/03 Q0989 RERA WSW (240°) 19.6mph 7°C 3°C
8/12/19 12:50 EGXZ 081250Z AUTO 25022G44KT 9999 RA SCT029/// 07/04 Q0989 RA WSW (250°) 25.3mph 50.6mph 7°C 4°C
8/12/19 11:50 EGXZ 081150Z AUTO 23018G30KT 9999 -RA FEW025/// SCT029/// 07/04 Q0990 -RA SW (230°) 20.7mph 34.5mph 7°C 4°C
8/12/19 10:50 EGXZ 081050Z AUTO 25019KT 9999 NCD 08/04 Q0990 WSW (250°) 21.9mph 8°C 4°C
8/12/19 09:50 EGXZ 080950Z AUTO 25017G28KT 9999 FEW050/// SCT150/// 07/04 Q0991 RERA WSW (250°) 19.6mph 32.2mph 7°C 4°C
8/12/19 08:50 EGXZ 080850Z AUTO 24018G28KT 9999 RA FEW030/// SCT044/// 08/05 Q0991 RA WSW (240°) 20.7mph 32.2mph 8°C 5°C
8/12/19 07:50 EGXZ 080750Z AUTO 25019G29KT 9999 -RA FEW006/// 08/04 Q0990 -RA WSW (250°) 21.9mph 33.4mph 8°C 4°C
8/12/19 06:50 EGXZ 080650Z AUTO 26021G33KT 9999 NCD 09/03 Q0990 W (260°) 24.2mph 38.0mph 9°C 3°C
8/12/19 05:50 EGXZ 080550Z AUTO 26023G33KT 9999 NCD 09/05 Q0989 RERA W (260°) 26.5mph 38.0mph 9°C 5°C
8/12/19 04:50 EGXZ 080450Z AUTO 26014G24KT 9999 -RA BKN027/// SCT047/// 10/06 Q0989 -RA W (260°) 16.1mph 27.6mph 10°C 6°C
8/12/19 03:50 EGXZ 080350Z AUTO 26014KT 9999 FEW031/// 11/05 Q0989 W (260°) 16.1mph 11°C 5°C
8/12/19 02:50 EGXZ 080250Z AUTO 21014KT 9999 BKN015/// SCT020/// 11/10 Q0988 RERA SSW (210°) 16.1mph 11°C 10°C
8/12/19 01:50 EGXZ 080150Z AUTO 20016KT 9999 BKN015/// 11/09 Q0989 RERA SSW (200°) 18.4mph 11°C 9°C
8/12/19 00:50 EGXZ 080050Z AUTO 21021KT 9999 BKN021/// SCT080/// 10/08 Q0990 RERA SSW (210°) 24.2mph 10°C 8°C
7/12/19 23:50 EGXZ 072350Z AUTO 20019KT 9999 RA SCT018/// BKN070/// 09/08 Q0992 RA SSW (200°) 21.9mph 9°C 8°C
7/12/19 22:50 EGXZ 072250Z AUTO 19021KT 9999 -RA BKN090/// SCT190/// 10/08 Q0994 -RA S (190°) 24.2mph 10°C 8°C
7/12/19 21:50 EGXZ 072150Z AUTO 20016KT 9999 BKN140/// SCT210/// 10/07 Q0996 SSW (200°) 18.4mph 10°C 7°C
7/12/19 20:50 EGXZ 072050Z AUTO 20016KT 9999 BKN230/// 10/07 Q0999 SSW (200°) 18.4mph 10°C 7°C
7/12/19 19:50 EGXZ 071950Z AUTO 17006KT 9999 BKN017/// SCT070/// 10/07 Q1001 S (170°) 6.9mph 10°C 7°C
7/12/19 18:50 EGXZ 071850Z AUTO 17012KT 9999 BKN019/// OVC080/// 10/08 Q1002 S (170°) 13.8mph 10°C 8°C
7/12/19 17:50 EGXZ 071750Z AUTO 16006KT 9999 FEW017/// BKN080/// 09/07 Q1004 SSE (160°) 6.9mph 9°C 7°C
7/12/19 16:50 EGXZ 071650Z AUTO 15009KT 9999 BKN016/// SCT050/// 09/07 Q1004 SSE (150°) 10.4mph 9°C 7°C
7/12/19 15:50 EGXZ 071550Z AUTO 17010KT 9999 BKN017/// SCT023/// BKN060/// 09/07 Q1005 S (170°) 11.5mph 9°C 7°C
7/12/19 14:50 EGXZ 071450Z AUTO 21009KT 9999 BKN021/// BKN070/// 09/07 Q1006 SSW (210°) 10.4mph 9°C 7°C
7/12/19 13:50 EGXZ 071350Z AUTO 22009KT 9999 BKN016/// BKN060/// 09/06 Q1007 SW (220°) 10.4mph 9°C 6°C
7/12/19 12:50 EGXZ 071250Z AUTO 24010KT 9999 BKN016/// BKN027/// 09/07 Q1008 RERA WSW (240°) 11.5mph 9°C 7°C